메인 페이지
METAR-TAF:

METAR-TAF

공항 :

풀코보 국제공항

상트페테르부르크, 러시아

위도: 59-58N, 경도: 030-18E, 고도: 4m

현재 날씨관측

예보는 37분 전, 04:00시(UTC)에 발표되었습니다.
무풍
온도 15°C
습도 63%
기압 1026 hPa
시정 10km 이상
1500m 미만 상공 구름 및 적란운 없음

METAR: ULLI 220400Z 00000MPS CAVOK 15/08 Q1026 R28L/090060 NOSIG

시각: 07:37 (04:37 UTC)

예보

예보는 2 시간 41분 전, 01:56시(UTC)에 발표되었습니다.
예보 대상 시간: 22일 03시부터 23일 03시까지 (UTC)
남남동6kt
시정 10km 이상
1500m 미만 상공 구름 및 적란운 없음
전환 중
22일 16시부터 22일 18시까지 (UTC)
시정 10km 이상
고도 2000ft 상공 구름 많음
일시적
22일 18시부터 23일 03시까지 (UTC)
시정: 4000m
고도 1500ft 상공 구름 많음, 적란운.
약한소나기

TAF: ULLI 220156Z 2203/2303 16003MPS CAVOK BECMG 2216/2218 9999 BKN020 TEMPO 2218/2303 4000 -SHRA BKN015CB

4,000개 이상의 공항 관측 자료 및 예보 (METAR 및 TAF 보고).

지도상에서 검색 가능한 기상관측소가 노란 점과 빨간 점으로 표시되어 있습니다.

기상관측소 명을 보려면 표시 위로 마우스를 이동하세요.

날씨 관측과 예보를 보려면 클릭하세요.

지도 변경 : 확대하려면 엑스 표시가 있는 녹색 버튼, 축소하려면 빼기 표시가 있는 녹색 버튼, 다음 페이지의 지도를 보려면 녹색 화살표를 클릭하세요.


METAR-TAF: